Skip to main content

NOAA/GLERL Met Station at Muskegon, MI

Previous 5 days (top of hour only)
See also Previous 3 Hours (2 minute increments)
Jump down to Data
Switch to [English][Metric]
Zoom: Click and drag, Pan: shift-click and drag, Unzoom: double-click, Unzoom All






Note: Speed = mean wind during 2-minute period at top of hour,
Gust = max wind during 2-minute period at top of hour,
Peak = max wind during entire hour.
• See also 5-day windrose plot


NOAA/GLERL Met Station at Muskegon, MI

Previous 5 days (top of hour only)
See also Previous 3 Hours (2 minute increments)
Jump up to Graphs
Switch to [English][Metric]
                  Wind  Wind  Wind   Air   Dew   Rel     Sta   PAR
                   Spd   Gst   Dir  Temp    Pt   Hum    Pres uE/m2/
YYYY-MM-DD   EST   m/s   m/s   deg     C     C     %      mb   sec
2020-02-28 00:00 -99.0 -99.0   -99   0.0   0.0   0.0    0.00     0
2020-02-27 19:00  11.8  12.6   332  -4.7 -10.3  64.8  994.70     2
2020-02-27 18:00  11.6  12.7   336  -4.9  -9.9  68.1  994.40    24
2020-02-27 17:00  13.6  14.7   338  -4.9 -11.2  61.5  994.30   117
2020-02-27 16:00  10.7  12.2   335  -4.9 -10.3  66.1  994.00   222
2020-02-27 15:00  13.5  15.8   332  -4.7 -11.1  61.2  994.00   692
2020-02-27 14:00  12.3  13.4   337  -5.5 -10.6  67.3  994.00   388
2020-02-27 13:00  11.6  14.2   329  -4.9 -10.6  64.6  994.20   452
2020-02-27 12:00  12.2  14.2   331  -5.2 -11.0  63.7  994.40   475
2020-02-27 11:00  11.5  15.2   348  -5.6 -11.6  62.8  994.30   374
2020-02-27 10:00  13.6  15.2   336  -5.1 -11.5  60.8  994.30   242
2020-02-27 09:00  16.5  18.5   339  -5.2 -12.0  59.0  994.30   217
2020-02-27 08:00  16.7  18.9   337  -4.7 -11.1  61.3  994.30    57
2020-02-27 07:00  12.1  13.2   336  -4.7 -11.1  61.0  994.10     2
2020-02-27 06:00  11.6  13.0   325  -4.4 -10.1  64.8  994.00     2
2020-02-27 05:00  10.5  11.8   338  -4.6 -10.8  62.0  993.90     2
2020-02-27 04:00  14.7  15.6   329  -3.7  -9.3  65.4  993.90     2
2020-02-27 03:00   6.4   8.1    12  -4.6  -8.5  74.4  994.10     2
2020-02-27 02:00   6.5   8.9     9  -4.2 -11.0  59.2  994.60     2
2020-02-27 01:00   8.3  11.7     5  -4.0 -10.7  59.8  994.60     2
2020-02-27 00:00   7.7   9.5     7  -4.3  -8.2  74.6  995.00     2
2020-02-26 23:00  10.4  14.2     2  -3.4  -9.8  61.2  995.00     2
2020-02-26 22:00   8.8  12.8   357  -3.2  -9.6  61.6  995.30     2
2020-02-26 21:00   6.4   8.3     3  -3.5  -7.3  75.0  995.10     2
2020-02-26 20:00   6.4   8.3    10  -2.6  -9.1  61.3  995.30     2
2020-02-26 19:00   6.9   8.9    10  -2.7  -8.8  63.0  994.90     2
2020-02-26 18:00  10.5  13.4     9  -2.8  -9.5  59.9  994.30   110
2020-02-26 17:00  10.1  12.4    16  -2.1  -9.8  55.8  994.00   507
2020-02-26 16:00  11.2  13.8     7  -0.5  -9.0  52.8  993.80  1424
2020-02-26 15:00   9.8  11.7   352  -1.3  -7.9  61.1  994.00   847
2020-02-26 14:00   8.9  10.9     9   0.5  -9.3  47.9  993.90   966
2020-02-26 13:00   5.7   8.3   359   0.2  -9.5  48.1  994.70  1249
2020-02-26 12:00   7.9  10.2    26   0.8 -10.1  44.1  995.20  1564
2020-02-26 11:00   5.6   7.5    45  -1.0  -9.9  51.1  996.00   695
2020-02-26 10:00   4.6   5.9    28  -1.4  -9.2  55.4  996.60   403
2020-02-26 09:00   4.9   6.2    52  -1.8  -9.0  57.9  997.10   239
2020-02-26 08:00   5.0   6.8    44  -2.0  -8.4  61.6  996.40    42
2020-02-26 07:00   3.0   3.9    42  -2.1  -8.2  63.1  996.40     2
2020-02-26 06:00   4.3   5.4    42  -2.0  -7.7  65.3  996.50     2
2020-02-26 05:00   4.4   5.7    53  -1.9  -7.8  64.1  996.30     2
2020-02-26 04:00   5.6   7.0    54  -1.9  -8.0  63.0  996.50     2
2020-02-26 03:00   5.6   7.6    45  -1.7  -7.7  63.7  997.10     2
2020-02-26 02:00   4.4   5.4    54  -1.3  -7.5  62.9  997.60     2
2020-02-26 01:00   5.8   7.2    53  -1.0  -7.4  62.0  998.10     2
2020-02-26 00:00   5.7   7.7    52  -0.7  -7.1  61.8  998.10     2
2020-02-25 23:00   8.0  10.4    55  -0.4  -7.1  60.7  998.10     2
2020-02-25 22:00   5.3   6.5    53   0.0  -7.1  59.1  998.40     2
2020-02-25 21:00   6.0   8.2    46   0.5  -6.4  59.7  998.10     2
2020-02-25 20:00   5.3   7.4    39   1.4  -5.6  59.6  997.60     2
2020-02-25 19:00   8.1   9.8    37   2.8  -4.5  58.6  996.60     2
2020-02-25 18:00   5.0   6.6    54   4.2  -4.1  54.7  995.10    52
2020-02-25 17:00   4.7   7.7    71   5.1  -4.4  50.2  994.30   324
2020-02-25 16:00   6.9   8.7    55   5.5  -4.0  50.4  994.00   684
2020-02-25 15:00   6.2   8.1    73   5.2  -3.3  54.2  994.00  1217
2020-02-25 14:00   4.9   6.4    77   4.5  -2.9  58.4  994.30  1339
2020-02-25 13:00   5.1   6.3    69   3.2  -3.0  63.6  994.70  1056
2020-02-25 12:00   6.2   8.3    75   2.2  -3.1  67.9  994.90   919
2020-02-25 11:00   5.7   7.7    70   1.4  -3.9  68.0  994.90   665
2020-02-25 10:00   5.2   6.4    70   1.3  -4.1  67.3  994.30   776
2020-02-25 09:00   4.8   6.8    60   0.9  -4.2  68.9  994.30  1227
2020-02-25 08:00   5.1   6.0    52  -0.6  -5.1  71.4  993.40   455
2020-02-25 07:00   4.1   5.0    45  -0.8  -5.0  73.1  993.40     2
2020-02-25 06:00   4.1   4.8    54  -0.2  -4.5  72.6  992.90     2
2020-02-25 05:00   5.3   6.7    53   0.4  -4.4  70.2  992.30     2
2020-02-25 04:00   5.0   6.0    60   0.5  -4.4  69.7  992.20     2
2020-02-25 03:00   4.5   5.4    63   0.9  -4.1  69.2  992.20     2
2020-02-25 02:00   5.3   7.0    77   1.7  -4.1  65.3  991.70     2
2020-02-25 01:00   6.1   8.0    62   2.4  -4.0  62.5  991.30     2
2020-02-25 00:00   5.2   6.3    63   2.8  -4.0  61.0  991.40     2
2020-02-24 23:00   5.0   6.8    71   3.0  -4.0  60.2  991.70     2
2020-02-24 22:00   3.3   4.5    52   2.8  -3.8  61.8  991.70     2
2020-02-24 21:00   2.4   2.8    58   2.6  -3.5  64.0  991.70     2
2020-02-24 20:00   0.7   1.1    74   3.1  -3.5  61.7  991.90     2
2020-02-24 19:00   2.6   2.7    49   2.3  -2.0  73.3  991.10     2
2020-02-24 18:00   1.9   2.1    21   1.9  -0.6  83.4  990.70    49
2020-02-24 17:00   3.1   3.3   352   2.1  -0.5  82.8  991.20   223
2020-02-24 16:00   4.1   4.4   343   2.7  -1.2  75.5  990.70   369
2020-02-24 15:00   2.1   2.8    99   5.4  -3.3  53.6  990.60   588
2020-02-24 14:00   2.4   3.4    96   5.2  -3.5  53.2  990.90   702
2020-02-24 13:00   3.2   4.4    93   4.8  -3.4  55.4  991.90   904
2020-02-24 12:00   3.4   4.6    93   4.4  -3.3  57.5  992.30  1014
2020-02-24 11:00   3.0   4.9   101   3.5  -2.0  67.2  992.90   961
2020-02-24 10:00   3.1   4.2    66   2.9  -2.2  69.2  992.90   907
2020-02-24 09:00   2.2   2.6    32  -0.1  -2.3  85.4  993.20   357
2020-02-24 08:00   0.6   0.8    41  -0.8  -2.8  86.6  992.20    87
2020-02-24 07:00   2.4   2.7    33   0.2  -2.8  80.4  992.00     2
2020-02-24 06:00   2.4   2.9    13   0.4  -1.1  89.9  992.00     2
2020-02-24 05:00   3.2   3.7     7   0.9  -1.4  84.8  991.60     2
2020-02-24 04:00   2.8   3.4   345   1.1  -0.8  87.4  991.10     2
2020-02-24 03:00   3.6   3.7   336   1.7  -0.6  84.7  991.10     2
2020-02-24 02:00   3.3   4.2   357   2.4  -0.3  82.3  990.60     2
2020-02-24 01:00   7.3   7.7   307   2.4  -0.2  83.2  990.10     2
2020-02-24 00:00   7.8   8.2   288   2.5   0.3  85.2  990.30     2
2020-02-23 23:00   8.2   8.8   273   2.9   0.7  85.6  990.60     2
2020-02-23 22:00   7.4   8.1   272   2.7   0.3  83.9  990.40     2
2020-02-23 21:00   8.5   8.9   263   2.8   0.0  81.8  990.30     2
2020-02-23 20:00   8.2   8.6   258   2.7   0.3  84.2  990.50     2
2020-02-23 19:00   6.4   7.5   220   1.4   0.1  90.9  990.20     2